sensor_id;sensor_type;location;lat;lon;timestamp;P1;durP1;ratioP1;P2;durP2;ratioP2
35518;SDS011;21627;48.216;16.482;2023-08-06T00:01:11;8.55;;;0.50;;
35518;SDS011;21627;48.216;16.482;2023-08-06T00:03:40;2.65;;;0.50;;
35518;SDS011;21627;48.216;16.482;2023-08-06T00:06:07;0.70;;;0.45;;
35518;SDS011;21627;48.216;16.482;2023-08-06T00:08:34;4.97;;;0.40;;
35518;SDS011;21627;48.216;16.482;2023-08-06T00:11:01;0.73;;;0.30;;
35518;SDS011;21627;48.216;16.482;2023-08-06T00:13:28;0.70;;;0.40;;
35518;SDS011;21627;48.216;16.482;2023-08-06T00:15:55;0.43;;;0.28;;
35518;SDS011;21627;48.216;16.482;2023-08-06T00:18:22;0.95;;;0.30;;
35518;SDS011;21627;48.216;16.482;2023-08-06T00:20:49;1.52;;;0.30;;
35518;SDS011;21627;48.216;16.482;2023-08-06T00:23:18;0.70;;;0.30;;
35518;SDS011;21627;48.216;16.482;2023-08-06T00:25:50;0.20;;;0.20;;
35518;SDS011;21627;48.216;16.482;2023-08-06T00:28:17;0.20;;;0.20;;
35518;SDS011;21627;48.216;16.482;2023-08-06T00:30:44;0.47;;;0.28;;
35518;SDS011;21627;48.216;16.482;2023-08-06T00:33:11;0.88;;;0.30;;
35518;SDS011;21627;48.216;16.482;2023-08-06T00:35:38;3.60;;;0.38;;
35518;SDS011;21627;48.216;16.482;2023-08-06T00:38:05;3.30;;;0.30;;
35518;SDS011;21627;48.216;16.482;2023-08-06T00:40:32;2.95;;;0.20;;
35518;SDS011;21627;48.216;16.482;2023-08-06T00:43:00;0.80;;;0.30;;
35518;SDS011;21627;48.216;16.482;2023-08-06T00:45:27;0.20;;;0.20;;
35518;SDS011;21627;48.216;16.482;2023-08-06T00:47:56;0.50;;;0.40;;
35518;SDS011;21627;48.216;16.482;2023-08-06T00:50:23;0.20;;;0.20;;
35518;SDS011;21627;48.216;16.482;2023-08-06T00:52:50;2.58;;;0.40;;
35518;SDS011;21627;48.216;16.482;2023-08-06T00:55:18;0.40;;;0.30;;
35518;SDS011;21627;48.216;16.482;2023-08-06T00:57:45;0.40;;;0.22;;
35518;SDS011;21627;48.216;16.482;2023-08-06T01:00:12;1.23;;;0.40;;
35518;SDS011;21627;48.216;16.482;2023-08-06T01:02:41;9.00;;;0.60;;
35518;SDS011;21627;48.216;16.482;2023-08-06T01:05:08;2.00;;;0.55;;
35518;SDS011;21627;48.216;16.482;2023-08-06T01:13:58;2.17;;;0.30;;
35518;SDS011;21627;48.216;16.482;2023-08-06T01:16:32;0.55;;;0.30;;
35518;SDS011;21627;48.216;16.482;2023-08-06T01:19:01;3.40;;;0.32;;
35518;SDS011;21627;48.216;16.482;2023-08-06T01:21:28;4.00;;;0.50;;
35518;SDS011;21627;48.216;16.482;2023-08-06T01:23:55;3.40;;;0.57;;
35518;SDS011;21627;48.216;16.482;2023-08-06T01:29:22;0.15;;;0.15;;
35518;SDS011;21627;48.216;16.482;2023-08-06T01:32:11;1.45;;;0.30;;
35518;SDS011;21627;48.216;16.482;2023-08-06T01:34:40;1.25;;;0.32;;
35518;SDS011;21627;48.216;16.482;2023-08-06T01:37:10;0.35;;;0.20;;
35518;SDS011;21627;48.216;16.482;2023-08-06T01:39:39;0.30;;;0.25;;
35518;SDS011;21627;48.216;16.482;2023-08-06T01:42:09;3.72;;;0.20;;
35518;SDS011;21627;48.216;16.482;2023-08-06T01:44:36;0.30;;;0.20;;
35518;SDS011;21627;48.216;16.482;2023-08-06T01:47:04;5.68;;;0.20;;
35518;SDS011;21627;48.216;16.482;2023-08-06T01:49:31;0.28;;;0.20;;
35518;SDS011;21627;48.216;16.482;2023-08-06T01:51:58;0.40;;;0.40;;
35518;SDS011;21627;48.216;16.482;2023-08-06T01:54:25;1.17;;;0.40;;
35518;SDS011;21627;48.216;16.482;2023-08-06T01:56:54;0.10;;;0.10;;
35518;SDS011;21627;48.216;16.482;2023-08-06T01:59:21;6.55;;;0.38;;
35518;SDS011;21627;48.216;16.482;2023-08-06T02:01:48;4.80;;;0.40;;
35518;SDS011;21627;48.216;16.482;2023-08-06T02:04:15;3.85;;;0.40;;
35518;SDS011;21627;48.216;16.482;2023-08-06T02:06:42;3.30;;;0.28;;
35518;SDS011;21627;48.216;16.482;2023-08-06T02:09:09;0.45;;;0.30;;
35518;SDS011;21627;48.216;16.482;2023-08-06T02:11:36;3.85;;;0.40;;
35518;SDS011;21627;48.216;16.482;2023-08-06T02:14:03;1.02;;;0.40;;
35518;SDS011;21627;48.216;16.482;2023-08-06T02:16:30;3.65;;;0.43;;
35518;SDS011;21627;48.216;16.482;2023-08-06T02:18:57;0.30;;;0.30;;
35518;SDS011;21627;48.216;16.482;2023-08-06T02:21:24;0.20;;;0.20;;
35518;SDS011;21627;48.216;16.482;2023-08-06T02:23:51;1.02;;;0.40;;
35518;SDS011;21627;48.216;16.482;2023-08-06T02:26:18;0.95;;;0.60;;
35518;SDS011;21627;48.216;16.482;2023-08-06T02:28:46;6.72;;;0.90;;
35518;SDS011;21627;48.216;16.482;2023-08-06T02:31:13;0.40;;;0.40;;
35518;SDS011;21627;48.216;16.482;2023-08-06T02:33:40;3.53;;;1.05;;
35518;SDS011;21627;48.216;16.482;2023-08-06T02:36:07;2.10;;;0.68;;
35518;SDS011;21627;48.216;16.482;2023-08-06T02:38:34;5.93;;;0.52;;
35518;SDS011;21627;48.216;16.482;2023-08-06T02:41:02;4.90;;;0.60;;
35518;SDS011;21627;48.216;16.482;2023-08-06T02:43:30;4.28;;;0.88;;
35518;SDS011;21627;48.216;16.482;2023-08-06T02:45:58;6.32;;;0.95;;
35518;SDS011;21627;48.216;16.482;2023-08-06T02:48:26;1.10;;;0.77;;
35518;SDS011;21627;48.216;16.482;2023-08-06T02:50:56;7.15;;;1.00;;
35518;SDS011;21627;48.216;16.482;2023-08-06T02:53:27;1.38;;;0.73;;
35518;SDS011;21627;48.216;16.482;2023-08-06T02:55:55;6.78;;;0.88;;
35518;SDS011;21627;48.216;16.482;2023-08-06T02:58:22;4.35;;;1.05;;
35518;SDS011;21627;48.216;16.482;2023-08-06T03:00:59;2.10;;;1.00;;
35518;SDS011;21627;48.216;16.482;2023-08-06T03:03:30;4.65;;;0.85;;
35518;SDS011;21627;48.216;16.482;2023-08-06T03:05:58;1.05;;;0.80;;
35518;SDS011;21627;48.216;16.482;2023-08-06T03:08:25;2.10;;;1.00;;
35518;SDS011;21627;48.216;16.482;2023-08-06T03:10:52;6.40;;;1.00;;
35518;SDS011;21627;48.216;16.482;2023-08-06T03:13:20;6.20;;;1.10;;
35518;SDS011;21627;48.216;16.482;2023-08-06T03:15:57;1.75;;;1.00;;
35518;SDS011;21627;48.216;16.482;2023-08-06T03:18:26;6.38;;;1.20;;
35518;SDS011;21627;48.216;16.482;2023-08-06T03:20:54;8.40;;;1.25;;
35518;SDS011;21627;48.216;16.482;2023-08-06T03:23:21;5.15;;;1.00;;
35518;SDS011;21627;48.216;16.482;2023-08-06T03:25:48;0.90;;;0.90;;
35518;SDS011;21627;48.216;16.482;2023-08-06T03:28:15;2.40;;;1.20;;
35518;SDS011;21627;48.216;16.482;2023-08-06T03:30:42;5.18;;;1.13;;
35518;SDS011;21627;48.216;16.482;2023-08-06T03:33:10;1.42;;;1.27;;
35518;SDS011;21627;48.216;16.482;2023-08-06T03:35:37;5.13;;;1.00;;
35518;SDS011;21627;48.216;16.482;2023-08-06T03:38:04;3.88;;;1.10;;
35518;SDS011;21627;48.216;16.482;2023-08-06T03:40:31;3.20;;;1.30;;
35518;SDS011;21627;48.216;16.482;2023-08-06T03:43:01;4.85;;;1.40;;
35518;SDS011;21627;48.216;16.482;2023-08-06T03:45:28;2.20;;;1.27;;
35518;SDS011;21627;48.216;16.482;2023-08-06T03:47:55;1.58;;;1.40;;
35518;SDS011;21627;48.216;16.482;2023-08-06T03:50:22;1.77;;;1.40;;
35518;SDS011;21627;48.216;16.482;2023-08-06T03:52:49;2.00;;;1.58;;
35518;SDS011;21627;48.216;16.482;2023-08-06T03:55:16;1.90;;;1.55;;
35518;SDS011;21627;48.216;16.482;2023-08-06T03:57:43;7.65;;;1.98;;
35518;SDS011;21627;48.216;16.482;2023-08-06T04:00:10;1.95;;;1.30;;
35518;SDS011;21627;48.216;16.482;2023-08-06T04:02:39;5.82;;;1.88;;
35518;SDS011;21627;48.216;16.482;2023-08-06T04:05:06;3.92;;;1.80;;
35518;SDS011;21627;48.216;16.482;2023-08-06T04:07:34;3.08;;;1.70;;
35518;SDS011;21627;48.216;16.482;2023-08-06T04:10:02;5.72;;;1.67;;
35518;SDS011;21627;48.216;16.482;2023-08-06T04:12:30;2.10;;;1.60;;
35518;SDS011;21627;48.216;16.482;2023-08-06T04:15:00;2.25;;;1.88;;
35518;SDS011;21627;48.216;16.482;2023-08-06T04:17:28;4.78;;;1.77;;
35518;SDS011;21627;48.216;16.482;2023-08-06T04:19:55;2.75;;;1.60;;
35518;SDS011;21627;48.216;16.482;2023-08-06T04:22:25;5.22;;;2.10;;
35518;SDS011;21627;48.216;16.482;2023-08-06T04:24:52;2.25;;;1.73;;
35518;SDS011;21627;48.216;16.482;2023-08-06T04:27:19;1.95;;;1.73;;
35518;SDS011;21627;48.216;16.482;2023-08-06T04:29:46;2.10;;;1.90;;
35518;SDS011;21627;48.216;16.482;2023-08-06T04:32:14;3.55;;;1.60;;
35518;SDS011;21627;48.216;16.482;2023-08-06T04:34:41;2.10;;;1.90;;
35518;SDS011;21627;48.216;16.482;2023-08-06T04:37:08;2.15;;;1.85;;
35518;SDS011;21627;48.216;16.482;2023-08-06T04:39:35;5.78;;;2.28;;
35518;SDS011;21627;48.216;16.482;2023-08-06T04:42:02;6.70;;;2.13;;
35518;SDS011;21627;48.216;16.482;2023-08-06T04:44:29;8.05;;;2.20;;
35518;SDS011;21627;48.216;16.482;2023-08-06T04:46:56;2.45;;;1.98;;
35518;SDS011;21627;48.216;16.482;2023-08-06T04:49:24;2.15;;;1.65;;
35518;SDS011;21627;48.216;16.482;2023-08-06T04:51:51;6.18;;;2.40;;
35518;SDS011;21627;48.216;16.482;2023-08-06T04:54:19;2.60;;;1.85;;
35518;SDS011;21627;48.216;16.482;2023-08-06T04:56:46;3.83;;;2.05;;
35518;SDS011;21627;48.216;16.482;2023-08-06T04:59:13;1.92;;;1.77;;
35518;SDS011;21627;48.216;16.482;2023-08-06T05:01:40;2.47;;;1.70;;
35518;SDS011;21627;48.216;16.482;2023-08-06T05:04:07;3.40;;;1.75;;
35518;SDS011;21627;48.216;16.482;2023-08-06T05:06:34;2.47;;;1.80;;
35518;SDS011;21627;48.216;16.482;2023-08-06T05:09:04;2.92;;;1.88;;
35518;SDS011;21627;48.216;16.482;2023-08-06T05:11:32;3.25;;;1.90;;
35518;SDS011;21627;48.216;16.482;2023-08-06T05:13:59;5.93;;;1.83;;
35518;SDS011;21627;48.216;16.482;2023-08-06T05:16:27;1.95;;;1.65;;
35518;SDS011;21627;48.216;16.482;2023-08-06T05:18:54;5.00;;;2.20;;
35518;SDS011;21627;48.216;16.482;2023-08-06T05:21:21;6.78;;;1.98;;
35518;SDS011;21627;48.216;16.482;2023-08-06T05:23:48;2.70;;;1.63;;
35518;SDS011;21627;48.216;16.482;2023-08-06T05:26:16;4.47;;;1.60;;
35518;SDS011;21627;48.216;16.482;2023-08-06T05:28:45;3.60;;;1.83;;
35518;SDS011;21627;48.216;16.482;2023-08-06T05:31:12;2.08;;;1.88;;
35518;SDS011;21627;48.216;16.482;2023-08-06T05:33:39;1.98;;;1.40;;
35518;SDS011;21627;48.216;16.482;2023-08-06T05:36:06;4.07;;;1.42;;
35518;SDS011;21627;48.216;16.482;2023-08-06T05:38:34;5.28;;;1.33;;
35518;SDS011;21627;48.216;16.482;2023-08-06T05:41:01;2.75;;;1.50;;
35518;SDS011;21627;48.216;16.482;2023-08-06T05:43:28;1.48;;;1.30;;
35518;SDS011;21627;48.216;16.482;2023-08-06T05:45:55;3.38;;;1.33;;
35518;SDS011;21627;48.216;16.482;2023-08-06T05:48:23;2.15;;;1.50;;
35518;SDS011;21627;48.216;16.482;2023-08-06T05:50:51;2.95;;;1.67;;
35518;SDS011;21627;48.216;16.482;2023-08-06T05:53:18;3.95;;;1.50;;
35518;SDS011;21627;48.216;16.482;2023-08-06T05:55:46;5.75;;;1.40;;
35518;SDS011;21627;48.216;16.482;2023-08-06T05:58:13;4.28;;;1.40;;
35518;SDS011;21627;48.216;16.482;2023-08-06T06:00:40;1.98;;;1.77;;
35518;SDS011;21627;48.216;16.482;2023-08-06T06:03:08;2.20;;;1.70;;
35518;SDS011;21627;48.216;16.482;2023-08-06T06:05:37;1.75;;;1.30;;
35518;SDS011;21627;48.216;16.482;2023-08-06T06:08:08;2.33;;;1.70;;
35518;SDS011;21627;48.216;16.482;2023-08-06T06:10:35;2.83;;;1.33;;
35518;SDS011;21627;48.216;16.482;2023-08-06T06:13:02;2.70;;;1.48;;
35518;SDS011;21627;48.216;16.482;2023-08-06T06:15:29;1.90;;;1.50;;
35518;SDS011;21627;48.216;16.482;2023-08-06T06:17:56;4.28;;;1.85;;
35518;SDS011;21627;48.216;16.482;2023-08-06T06:20:23;3.28;;;1.80;;
35518;SDS011;21627;48.216;16.482;2023-08-06T06:22:50;2.15;;;1.88;;
35518;SDS011;21627;48.216;16.482;2023-08-06T06:25:18;7.95;;;1.50;;
35518;SDS011;21627;48.216;16.482;2023-08-06T06:27:45;2.78;;;1.80;;
35518;SDS011;21627;48.216;16.482;2023-08-06T06:30:12;4.55;;;1.90;;
35518;SDS011;21627;48.216;16.482;2023-08-06T06:32:39;6.75;;;2.20;;
35518;SDS011;21627;48.216;16.482;2023-08-06T06:35:07;2.58;;;1.92;;
35518;SDS011;21627;48.216;16.482;2023-08-06T06:37:35;2.22;;;1.70;;
35518;SDS011;21627;48.216;16.482;2023-08-06T06:40:02;6.53;;;1.50;;
35518;SDS011;21627;48.216;16.482;2023-08-06T06:42:30;2.00;;;1.40;;
35518;SDS011;21627;48.216;16.482;2023-08-06T06:44:57;1.63;;;1.40;;
35518;SDS011;21627;48.216;16.482;2023-08-06T06:47:24;2.17;;;1.63;;
35518;SDS011;21627;48.216;16.482;2023-08-06T06:49:52;2.22;;;1.50;;
35518;SDS011;21627;48.216;16.482;2023-08-06T06:52:19;2.25;;;2.05;;
35518;SDS011;21627;48.216;16.482;2023-08-06T06:54:46;1.70;;;1.60;;
35518;SDS011;21627;48.216;16.482;2023-08-06T06:57:13;5.10;;;1.80;;
35518;SDS011;21627;48.216;16.482;2023-08-06T06:59:40;5.30;;;1.50;;
35518;SDS011;21627;48.216;16.482;2023-08-06T07:02:08;4.55;;;1.40;;
35518;SDS011;21627;48.216;16.482;2023-08-06T07:04:35;2.40;;;1.58;;
35518;SDS011;21627;48.216;16.482;2023-08-06T07:07:02;1.88;;;1.67;;
35518;SDS011;21627;48.216;16.482;2023-08-06T07:09:29;2.67;;;1.50;;
35518;SDS011;21627;48.216;16.482;2023-08-06T07:11:56;1.50;;;1.40;;
35518;SDS011;21627;48.216;16.482;2023-08-06T07:14:28;3.05;;;1.40;;
35518;SDS011;21627;48.216;16.482;2023-08-06T07:16:55;2.58;;;1.73;;
35518;SDS011;21627;48.216;16.482;2023-08-06T07:19:23;1.80;;;1.67;;
35518;SDS011;21627;48.216;16.482;2023-08-06T07:21:50;2.80;;;1.60;;
35518;SDS011;21627;48.216;16.482;2023-08-06T07:24:18;1.38;;;1.27;;
35518;SDS011;21627;48.216;16.482;2023-08-06T07:26:45;2.53;;;1.77;;
35518;SDS011;21627;48.216;16.482;2023-08-06T07:29:12;3.38;;;1.70;;
35518;SDS011;21627;48.216;16.482;2023-08-06T07:31:39;3.33;;;1.73;;
35518;SDS011;21627;48.216;16.482;2023-08-06T07:34:06;5.18;;;2.03;;
35518;SDS011;21627;48.216;16.482;2023-08-06T07:36:33;2.45;;;1.90;;
35518;SDS011;21627;48.216;16.482;2023-08-06T07:39:01;5.28;;;1.60;;
35518;SDS011;21627;48.216;16.482;2023-08-06T07:41:28;3.08;;;1.80;;
35518;SDS011;21627;48.216;16.482;2023-08-06T07:43:55;2.67;;;1.83;;
35518;SDS011;21627;48.216;16.482;2023-08-06T07:46:22;2.45;;;1.98;;
35518;SDS011;21627;48.216;16.482;2023-08-06T07:48:49;1.83;;;1.45;;
35518;SDS011;21627;48.216;16.482;2023-08-06T07:51:16;2.00;;;1.80;;
35518;SDS011;21627;48.216;16.482;2023-08-06T07:53:44;2.13;;;1.67;;
35518;SDS011;21627;48.216;16.482;2023-08-06T07:56:12;2.58;;;1.50;;
35518;SDS011;21627;48.216;16.482;2023-08-06T07:58:39;1.50;;;1.40;;
35518;SDS011;21627;48.216;16.482;2023-08-06T08:01:06;2.30;;;1.88;;
35518;SDS011;21627;48.216;16.482;2023-08-06T08:03:34;2.13;;;1.73;;
35518;SDS011;21627;48.216;16.482;2023-08-06T08:06:01;2.67;;;1.63;;
35518;SDS011;21627;48.216;16.482;2023-08-06T08:08:28;3.53;;;1.85;;
35518;SDS011;21627;48.216;16.482;2023-08-06T08:10:55;2.97;;;1.90;;
35518;SDS011;21627;48.216;16.482;2023-08-06T08:13:22;2.10;;;1.90;;
35518;SDS011;21627;48.216;16.482;2023-08-06T08:15:50;2.38;;;2.03;;
35518;SDS011;21627;48.216;16.482;2023-08-06T08:18:24;2.58;;;2.20;;
35518;SDS011;21627;48.216;16.482;2023-08-06T08:20:52;2.15;;;1.75;;
35518;SDS011;21627;48.216;16.482;2023-08-06T08:23:19;3.67;;;2.13;;
35518;SDS011;21627;48.216;16.482;2023-08-06T08:25:46;2.28;;;1.92;;
35518;SDS011;21627;48.216;16.482;2023-08-06T08:28:13;2.75;;;2.10;;
35518;SDS011;21627;48.216;16.482;2023-08-06T08:30:40;5.78;;;1.63;;
35518;SDS011;21627;48.216;16.482;2023-08-06T08:33:08;3.97;;;1.80;;
35518;SDS011;21627;48.216;16.482;2023-08-06T08:35:35;3.60;;;1.80;;
35518;SDS011;21627;48.216;16.482;2023-08-06T08:38:03;2.15;;;1.90;;
35518;SDS011;21627;48.216;16.482;2023-08-06T08:40:34;2.35;;;1.95;;
35518;SDS011;21627;48.216;16.482;2023-08-06T08:43:08;4.47;;;1.63;;
35518;SDS011;21627;48.216;16.482;2023-08-06T08:45:36;2.20;;;1.75;;
35518;SDS011;21627;48.216;16.482;2023-08-06T08:48:06;2.45;;;1.88;;
35518;SDS011;21627;48.216;16.482;2023-08-06T08:50:34;4.93;;;1.70;;
35518;SDS011;21627;48.216;16.482;2023-08-06T08:53:02;3.50;;;1.73;;
35518;SDS011;21627;48.216;16.482;2023-08-06T08:55:29;2.28;;;1.98;;
35518;SDS011;21627;48.216;16.482;2023-08-06T08:57:57;2.22;;;1.70;;
35518;SDS011;21627;48.216;16.482;2023-08-06T09:00:24;1.95;;;1.55;;
35518;SDS011;21627;48.216;16.482;2023-08-06T09:02:52;7.70;;;1.98;;
35518;SDS011;21627;48.216;16.482;2023-08-06T09:05:20;2.38;;;2.05;;
35518;SDS011;21627;48.216;16.482;2023-08-06T09:07:49;2.42;;;1.80;;
35518;SDS011;21627;48.216;16.482;2023-08-06T09:10:19;4.18;;;2.05;;
35518;SDS011;21627;48.216;16.482;2023-08-06T09:12:50;3.00;;;2.03;;
35518;SDS011;21627;48.216;16.482;2023-08-06T09:15:20;2.10;;;1.58;;
35518;SDS011;21627;48.216;16.482;2023-08-06T09:17:51;2.38;;;1.60;;
35518;SDS011;21627;48.216;16.482;2023-08-06T09:20:19;4.25;;;1.70;;
35518;SDS011;21627;48.216;16.482;2023-08-06T09:22:46;7.35;;;2.00;;
35518;SDS011;21627;48.216;16.482;2023-08-06T09:25:22;3.00;;;2.05;;
35518;SDS011;21627;48.216;16.482;2023-08-06T09:30:39;4.30;;;1.50;;
35518;SDS011;21627;48.216;16.482;2023-08-06T09:33:08;3.08;;;1.90;;
35518;SDS011;21627;48.216;16.482;2023-08-06T09:35:42;3.33;;;1.88;;
35518;SDS011;21627;48.216;16.482;2023-08-06T09:38:09;4.30;;;2.10;;
35518;SDS011;21627;48.216;16.482;2023-08-06T09:40:38;4.20;;;1.83;;
35518;SDS011;21627;48.216;16.482;2023-08-06T09:43:06;2.22;;;2.03;;
35518;SDS011;21627;48.216;16.482;2023-08-06T09:45:36;2.60;;;2.03;;
35518;SDS011;21627;48.216;16.482;2023-08-06T09:48:05;2.70;;;2.10;;
35518;SDS011;21627;48.216;16.482;2023-08-06T09:50:37;4.72;;;2.08;;
35518;SDS011;21627;48.216;16.482;2023-08-06T09:53:06;3.33;;;2.35;;
35518;SDS011;21627;48.216;16.482;2023-08-06T09:55:35;3.35;;;2.13;;
35518;SDS011;21627;48.216;16.482;2023-08-06T09:58:02;3.55;;;2.20;;
35518;SDS011;21627;48.216;16.482;2023-08-06T10:00:31;2.38;;;2.00;;
35518;SDS011;21627;48.216;16.482;2023-08-06T10:03:05;2.38;;;2.10;;
35518;SDS011;21627;48.216;16.482;2023-08-06T10:05:34;1.92;;;1.77;;
35518;SDS011;21627;48.216;16.482;2023-08-06T10:08:02;2.28;;;2.08;;
35518;SDS011;21627;48.216;16.482;2023-08-06T10:10:32;2.10;;;1.73;;
35518;SDS011;21627;48.216;16.482;2023-08-06T10:13:01;3.17;;;2.08;;
35518;SDS011;21627;48.216;16.482;2023-08-06T10:15:31;2.92;;;1.67;;
35518;SDS011;21627;48.216;16.482;2023-08-06T10:17:59;5.18;;;1.60;;
35518;SDS011;21627;48.216;16.482;2023-08-06T10:20:32;2.63;;;1.67;;
35518;SDS011;21627;48.216;16.482;2023-08-06T10:23:01;1.65;;;1.33;;
35518;SDS011;21627;48.216;16.482;2023-08-06T10:25:31;2.42;;;1.40;;
35518;SDS011;21627;48.216;16.482;2023-08-06T10:28:09;2.35;;;1.52;;
35518;SDS011;21627;48.216;16.482;2023-08-06T10:30:44;2.13;;;1.65;;
35518;SDS011;21627;48.216;16.482;2023-08-06T10:33:14;2.47;;;1.30;;
35518;SDS011;21627;48.216;16.482;2023-08-06T10:38:15;5.55;;;1.40;;
35518;SDS011;21627;48.216;16.482;2023-08-06T10:43:41;3.53;;;1.08;;
35518;SDS011;21627;48.216;16.482;2023-08-06T10:46:11;2.22;;;1.42;;
35518;SDS011;21627;48.216;16.482;2023-08-06T10:48:50;2.58;;;1.42;;
35518;SDS011;21627;48.216;16.482;2023-08-06T10:51:17;1.73;;;1.30;;
35518;SDS011;21627;48.216;16.482;2023-08-06T10:53:45;2.17;;;1.48;;
35518;SDS011;21627;48.216;16.482;2023-08-06T10:56:19;4.13;;;1.20;;
35518;SDS011;21627;48.216;16.482;2023-08-06T10:58:49;1.75;;;1.50;;
35518;SDS011;21627;48.216;16.482;2023-08-06T11:01:18;3.33;;;1.55;;
35518;SDS011;21627;48.216;16.482;2023-08-06T11:03:45;5.28;;;1.33;;
35518;SDS011;21627;48.216;16.482;2023-08-06T11:06:18;2.83;;;1.30;;
35518;SDS011;21627;48.216;16.482;2023-08-06T11:08:50;3.00;;;1.60;;
35518;SDS011;21627;48.216;16.482;2023-08-06T11:11:20;1.98;;;1.50;;
35518;SDS011;21627;48.216;16.482;2023-08-06T11:13:50;3.45;;;2.08;;
35518;SDS011;21627;48.216;16.482;2023-08-06T11:16:18;2.83;;;2.17;;
35518;SDS011;21627;48.216;16.482;2023-08-06T11:18:49;3.00;;;2.22;;
35518;SDS011;21627;48.216;16.482;2023-08-06T11:21:20;5.97;;;2.33;;
35518;SDS011;21627;48.216;16.482;2023-08-06T11:23:48;2.60;;;2.08;;
35518;SDS011;21627;48.216;16.482;2023-08-06T11:26:19;3.95;;;2.30;;
35518;SDS011;21627;48.216;16.482;2023-08-06T11:28:47;3.28;;;2.47;;
35518;SDS011;21627;48.216;16.482;2023-08-06T11:31:20;5.53;;;2.60;;
35518;SDS011;21627;48.216;16.482;2023-08-06T11:33:52;2.35;;;2.05;;
35518;SDS011;21627;48.216;16.482;2023-08-06T11:36:30;4.03;;;2.45;;
35518;SDS011;21627;48.216;16.482;2023-08-06T11:39:06;5.60;;;2.25;;
35518;SDS011;21627;48.216;16.482;2023-08-06T11:41:34;4.38;;;2.17;;
35518;SDS011;21627;48.216;16.482;2023-08-06T11:44:04;2.53;;;2.15;;
35518;SDS011;21627;48.216;16.482;2023-08-06T11:49:37;2.50;;;1.92;;
35518;SDS011;21627;48.216;16.482;2023-08-06T11:52:13;3.88;;;2.28;;
35518;SDS011;21627;48.216;16.482;2023-08-06T11:54:47;2.80;;;2.00;;
35518;SDS011;21627;48.216;16.482;2023-08-06T11:57:38;4.13;;;1.85;;
35518;SDS011;21627;48.216;16.482;2023-08-06T12:00:12;2.63;;;2.00;;
35518;SDS011;21627;48.216;16.482;2023-08-06T12:02:40;5.65;;;2.20;;
35518;SDS011;21627;48.216;16.482;2023-08-06T12:05:14;2.28;;;1.98;;
35518;SDS011;21627;48.216;16.482;2023-08-06T12:07:55;5.43;;;2.00;;
35518;SDS011;21627;48.216;16.482;2023-08-06T12:10:24;3.30;;;2.05;;
35518;SDS011;21627;48.216;16.482;2023-08-06T12:12:55;2.65;;;2.20;;
35518;SDS011;21627;48.216;16.482;2023-08-06T12:15:22;2.72;;;2.03;;
35518;SDS011;21627;48.216;16.482;2023-08-06T12:17:50;3.28;;;2.35;;
35518;SDS011;21627;48.216;16.482;2023-08-06T12:20:17;5.80;;;2.08;;
35518;SDS011;21627;48.216;16.482;2023-08-06T12:22:44;5.75;;;2.30;;
35518;SDS011;21627;48.216;16.482;2023-08-06T12:25:12;3.50;;;1.90;;
35518;SDS011;21627;48.216;16.482;2023-08-06T12:27:40;2.75;;;2.10;;
35518;SDS011;21627;48.216;16.482;2023-08-06T12:30:10;3.30;;;2.20;;
35518;SDS011;21627;48.216;16.482;2023-08-06T12:32:39;3.80;;;2.58;;
35518;SDS011;21627;48.216;16.482;2023-08-06T12:35:07;4.22;;;2.75;;
35518;SDS011;21627;48.216;16.482;2023-08-06T12:37:35;4.38;;;2.30;;
35518;SDS011;21627;48.216;16.482;2023-08-06T12:40:05;3.58;;;1.77;;
35518;SDS011;21627;48.216;16.482;2023-08-06T12:42:53;2.83;;;2.10;;
35518;SDS011;21627;48.216;16.482;2023-08-06T12:45:20;5.10;;;2.22;;
35518;SDS011;21627;48.216;16.482;2023-08-06T12:47:48;4.97;;;2.25;;
35518;SDS011;21627;48.216;16.482;2023-08-06T12:50:16;5.40;;;2.10;;
35518;SDS011;21627;48.216;16.482;2023-08-06T12:52:44;2.78;;;2.20;;
35518;SDS011;21627;48.216;16.482;2023-08-06T12:55:11;4.13;;;2.15;;
35518;SDS011;21627;48.216;16.482;2023-08-06T12:57:38;2.78;;;2.33;;
35518;SDS011;21627;48.216;16.482;2023-08-06T13:00:24;2.72;;;2.15;;
35518;SDS011;21627;48.216;16.482;2023-08-06T13:02:54;3.45;;;2.60;;
35518;SDS011;21627;48.216;16.482;2023-08-06T13:05:23;3.90;;;2.40;;
35518;SDS011;21627;48.216;16.482;2023-08-06T13:07:52;6.07;;;2.38;;
35518;SDS011;21627;48.216;16.482;2023-08-06T13:10:21;5.05;;;2.80;;
35518;SDS011;21627;48.216;16.482;2023-08-06T13:12:51;6.45;;;2.33;;
35518;SDS011;21627;48.216;16.482;2023-08-06T13:15:20;2.75;;;2.30;;
35518;SDS011;21627;48.216;16.482;2023-08-06T13:17:49;2.55;;;2.08;;
35518;SDS011;21627;48.216;16.482;2023-08-06T13:20:19;4.40;;;2.40;;
35518;SDS011;21627;48.216;16.482;2023-08-06T13:22:49;2.90;;;2.30;;
35518;SDS011;21627;48.216;16.482;2023-08-06T13:25:20;4.63;;;2.17;;
35518;SDS011;21627;48.216;16.482;2023-08-06T13:27:50;3.17;;;2.33;;
35518;SDS011;21627;48.216;16.482;2023-08-06T13:30:18;4.10;;;2.30;;
35518;SDS011;21627;48.216;16.482;2023-08-06T13:32:47;5.40;;;2.47;;
35518;SDS011;21627;48.216;16.482;2023-08-06T13:35:16;3.65;;;2.58;;
35518;SDS011;21627;48.216;16.482;2023-08-06T13:37:45;8.10;;;2.70;;
35518;SDS011;21627;48.216;16.482;2023-08-06T13:40:15;4.47;;;2.80;;
35518;SDS011;21627;48.216;16.482;2023-08-06T13:42:44;3.08;;;2.28;;
35518;SDS011;21627;48.216;16.482;2023-08-06T13:45:12;4.32;;;2.63;;
35518;SDS011;21627;48.216;16.482;2023-08-06T13:47:41;8.43;;;3.28;;
35518;SDS011;21627;48.216;16.482;2023-08-06T13:50:10;5.43;;;2.58;;
35518;SDS011;21627;48.216;16.482;2023-08-06T13:52:39;5.40;;;2.67;;
35518;SDS011;21627;48.216;16.482;2023-08-06T13:55:08;3.78;;;2.20;;
35518;SDS011;21627;48.216;16.482;2023-08-06T13:57:37;4.75;;;2.30;;
35518;SDS011;21627;48.216;16.482;2023-08-06T14:00:07;4.05;;;2.72;;
35518;SDS011;21627;48.216;16.482;2023-08-06T14:02:36;3.13;;;2.30;;
35518;SDS011;21627;48.216;16.482;2023-08-06T14:05:05;6.53;;;2.60;;
35518;SDS011;21627;48.216;16.482;2023-08-06T14:07:34;3.47;;;2.63;;
35518;SDS011;21627;48.216;16.482;2023-08-06T14:10:03;3.17;;;2.60;;
35518;SDS011;21627;48.216;16.482;2023-08-06T14:12:33;4.05;;;2.33;;
35518;SDS011;21627;48.216;16.482;2023-08-06T14:15:04;2.83;;;2.50;;
35518;SDS011;21627;48.216;16.482;2023-08-06T14:17:33;7.35;;;2.15;;
35518;SDS011;21627;48.216;16.482;2023-08-06T14:20:03;6.88;;;2.35;;
35518;SDS011;21627;48.216;16.482;2023-08-06T14:22:35;3.63;;;2.38;;
35518;SDS011;21627;48.216;16.482;2023-08-06T14:25:05;4.75;;;2.17;;
35518;SDS011;21627;48.216;16.482;2023-08-06T14:27:34;4.05;;;2.10;;
35518;SDS011;21627;48.216;16.482;2023-08-06T14:30:03;3.65;;;2.30;;
35518;SDS011;21627;48.216;16.482;2023-08-06T14:32:35;4.15;;;2.22;;
35518;SDS011;21627;48.216;16.482;2023-08-06T14:35:04;6.40;;;2.22;;
35518;SDS011;21627;48.216;16.482;2023-08-06T14:37:33;3.10;;;1.90;;
35518;SDS011;21627;48.216;16.482;2023-08-06T14:40:02;1.55;;;1.17;;
35518;SDS011;21627;48.216;16.482;2023-08-06T14:42:32;2.97;;;1.50;;
35518;SDS011;21627;48.216;16.482;2023-08-06T14:45:01;1.65;;;1.00;;
35518;SDS011;21627;48.216;16.482;2023-08-06T14:47:31;1.58;;;1.00;;
35518;SDS011;21627;48.216;16.482;2023-08-06T14:50:00;2.05;;;0.93;;
35518;SDS011;21627;48.216;16.482;2023-08-06T14:52:30;1.80;;;0.80;;
35518;SDS011;21627;48.216;16.482;2023-08-06T14:55:00;2.15;;;0.85;;
35518;SDS011;21627;48.216;16.482;2023-08-06T14:57:31;0.98;;;0.60;;
35518;SDS011;21627;48.216;16.482;2023-08-06T14:59:59;1.02;;;0.60;;
35518;SDS011;21627;48.216;16.482;2023-08-06T15:02:29;0.98;;;0.70;;